Fence, Wisconsin
Current Conditions -  °F | °C
As of 3:54 AM on Thursday 29 Jan 2015 (Local Time) from KIMT Reporting Station
Light Snow Light Snow  
Wind Chill: 27°   Ceiling: 2100
Heat Index: 27°   Visibility: 2mi
Dew Point: 25°   Wind: 0mph
Humidity: 92%   Direction: NA
Pressure: 29.74"   Gusts: NA
Location:  45.74°N, 88.42°W
Report Text: KIMT 290954Z AUTO 00000KT 2SM -SN BR BKN021 OVC030 M03/M04 A2974 RMK AO2 SNB0855 SLP089 P0000 T10281039
Loading
Personal Weather Stations






























Interactive Weather Map New forecast layout! Learn more

10-Day Weather Forecast

Advertisements
Track Severe Weather on mobile